Time;durP1;ratioP1;P1;durP2;ratioP2;P2;SDS_P1;SDS_P2;PMS_P1;PMS_P2;Temp;Humidity;BMP_temperature;BMP_pressure;BME280_temperature;BME280_humidity;BME280_pressure;Samples;Min_cycle;Max_cycle;Signal;HPM_P1;HPM_P2
2021/01/17 00:00:03;;;;;;;37.88;18.67;;;-1.70;99.90;;;;;;5026367;28;20021;-47
2021/01/17 00:02:28;;;;;;;40.15;19.17;;;-1.70;99.90;;;;;;5028414;28;20056;-44
2021/01/17 00:04:54;;;;;;;40.55;21.08;;;-1.70;99.90;;;;;;5027706;28;20026;-44
2021/01/17 00:07:19;;;;;;;42.20;19.92;;;-1.70;99.90;;;;;;5028454;28;20056;-45
2021/01/17 00:09:45;;;;;;;46.35;21.77;;;-1.70;99.90;;;;;;5027633;28;20025;-44
2021/01/17 00:12:10;;;;;;;39.28;21.30;;;-1.70;99.90;;;;;;5028644;28;20026;-45
2021/01/17 00:14:36;;;;;;;44.70;21.08;;;-1.70;99.90;;;;;;5027147;28;20506;-46
2021/01/17 00:17:02;;;;;;;44.30;22.60;;;-1.70;99.90;;;;;;5027372;28;20030;-44
2021/01/17 00:19:29;;;;;;;45.33;21.17;;;-1.60;99.90;;;;;;5028404;28;20030;-46
2021/01/17 00:21:54;;;;;;;52.60;23.25;;;-1.60;99.90;;;;;;5028213;28;20026;-44
2021/01/17 00:24:19;;;;;;;46.22;22.00;;;-1.60;99.90;;;;;;5027522;28;20025;-47
2021/01/17 00:26:45;;;;;;;43.58;22.42;;;-1.60;99.90;;;;;;5027676;28;20561;-44
2021/01/17 00:29:11;;;;;;;62.40;28.85;;;-1.60;99.90;;;;;;5027235;28;20021;-43
2021/01/17 00:31:37;;;;;;;49.72;24.60;;;-1.60;99.90;;;;;;5028294;28;20025;-44
2021/01/17 00:34:03;;;;;;;44.42;22.73;;;-1.60;99.90;;;;;;5028320;28;20390;-46
2021/01/17 00:36:35;;;;;;;42.67;21.38;;;-1.60;99.90;;;;;;5027560;28;20321;-45
2021/01/17 00:39:01;;;;;;;41.65;21.00;;;-1.60;99.90;;;;;;5029263;28;20021;-45
2021/01/17 00:41:31;;;;;;;36.83;19.50;;;-1.70;99.90;;;;;;5032248;28;20041;-44
2021/01/17 00:43:56;;;;;;;41.23;20.67;;;-1.60;99.90;;;;;;5031299;28;20025;-44
2021/01/17 00:46:22;;;;;;;36.25;18.48;;;-1.70;99.90;;;;;;5031198;28;20668;-44
2021/01/17 00:48:47;;;;;;;38.08;19.00;;;-1.60;99.90;;;;;;5032079;28;20491;-44
2021/01/17 00:51:12;;;;;;;41.75;18.75;;;-1.60;99.90;;;;;;5031774;28;20072;-44
2021/01/17 00:53:38;;;;;;;40.70;19.10;;;-1.60;99.90;;;;;;5030676;28;20166;-45
2021/01/17 00:56:04;;;;;;;39.88;19.65;;;-1.60;99.90;;;;;;5030990;28;20486;-44
2021/01/17 00:58:29;;;;;;;38.22;17.25;;;-1.60;99.90;;;;;;5031886;28;20064;-46
2021/01/17 01:00:54;;;;;;;37.00;17.55;;;-1.60;99.90;;;;;;5030890;28;20091;-44
2021/01/17 01:03:20;;;;;;;36.72;18.75;;;-1.60;99.90;;;;;;5031715;28;20021;-44
2021/01/17 01:05:45;;;;;;;35.63;19.13;;;-1.60;99.90;;;;;;5030009;28;20466;-44
2021/01/17 01:08:11;;;;;;;39.50;18.55;;;-1.60;99.90;;;;;;5030645;28;20030;-44
2021/01/17 01:10:37;;;;;;;36.78;19.65;;;-1.70;99.90;;;;;;5031539;28;20537;-44
2021/01/17 01:13:02;;;;;;;39.20;19.58;;;-1.60;99.90;;;;;;5031359;28;20087;-44
2021/01/17 01:15:28;;;;;;;43.67;18.63;;;-1.70;99.90;;;;;;5029773;28;20482;-44
2021/01/17 01:17:53;;;;;;;38.00;17.90;;;-1.60;99.90;;;;;;5031068;28;20080;-45
2021/01/17 01:20:19;;;;;;;32.60;17.63;;;-1.70;99.90;;;;;;5031130;28;20030;-44
2021/01/17 01:22:44;;;;;;;32.78;17.27;;;-1.60;99.90;;;;;;5028928;28;20490;-43
2021/01/17 01:25:10;;;;;;;36.97;18.25;;;-1.60;99.90;;;;;;5030463;28;20068;-45
2021/01/17 01:27:36;;;;;;;33.47;17.55;;;-1.60;99.90;;;;;;5030158;28;20049;-42
2021/01/17 01:30:04;;;;;;;36.13;17.85;;;-1.60;99.90;;;;;;5031103;28;20080;-43
2021/01/17 01:32:29;;;;;;;36.40;16.17;;;-1.50;99.90;;;;;;5031370;28;20457;-45
2021/01/17 01:34:55;;;;;;;32.63;15.23;;;-1.50;99.90;;;;;;5030805;28;20047;-45
2021/01/17 01:37:21;;;;;;;34.17;17.02;;;-1.50;99.90;;;;;;5030982;28;20033;-44
2021/01/17 01:39:46;;;;;;;35.00;17.63;;;-1.40;99.90;;;;;;5030224;28;20036;-44
2021/01/17 01:42:12;;;;;;;37.92;18.17;;;-1.40;99.90;;;;;;5031289;28;20108;-43
2021/01/17 01:44:37;;;;;;;39.05;19.65;;;-1.40;99.90;;;;;;5029480;28;20030;-45
2021/01/17 01:47:04;;;;;;;38.70;18.60;;;-1.40;99.90;;;;;;5030973;28;20033;-48
2021/01/17 01:49:30;;;;;;;34.67;17.38;;;-1.40;99.90;;;;;;5028342;28;20490;-43
2021/01/17 01:51:59;;;;;;;35.85;19.05;;;-1.40;99.90;;;;;;5029958;28;20067;-44
2021/01/17 01:54:24;;;;;;;37.17;18.55;;;-1.40;99.90;;;;;;5027933;28;20083;-44
2021/01/17 01:56:54;;;;;;;36.60;18.27;;;-1.30;99.90;;;;;;5028882;28;20033;-43
2021/01/17 01:59:20;;;;;;;40.67;18.07;;;-1.40;99.90;;;;;;5029852;28;20026;-44
2021/01/17 02:01:48;;;;;;;33.03;17.10;;;-1.40;99.90;;;;;;5030026;28;20490;-44
2021/01/17 02:04:14;;;;;;;36.85;19.17;;;-1.30;99.90;;;;;;5028828;28;20061;-44
2021/01/17 02:06:58;;;;;;;32.88;15.80;;;-1.30;99.90;;;;;;5029296;28;20021;-44
2021/01/17 02:09:29;;;;;;;37.00;17.27;;;-1.30;99.90;;;;;;5028561;28;20022;-44
2021/01/17 02:12:13;;;;;;;35.80;18.17;;;-1.30;99.90;;;;;;5027820;28;20017;-43
2021/01/17 02:14:50;;;;;;;36.40;17.58;;;-1.30;99.90;;;;;;5026420;28;20060;-44
2021/01/17 02:17:19;;;;;;;37.75;18.27;;;-1.30;99.90;;;;;;5025519;28;20330;-43
2021/01/17 02:20:14;;;;;;;36.75;17.75;;;-1.30;99.90;;;;;;5028379;28;20052;-43
2021/01/17 02:23:01;;;;;;;37.45;16.65;;;-1.30;99.90;;;;;;5027921;28;20022;-44
2021/01/17 02:25:33;;;;;;;32.13;16.95;;;-1.30;99.90;;;;;;5028581;28;20021;-43
2021/01/17 02:28:01;;;;;;;35.33;15.88;;;-1.30;99.90;;;;;;5029591;28;20145;-43
2021/01/17 02:30:29;;;;;;;35.10;17.92;;;-1.30;99.90;;;;;;5029539;28;20149;-45
2021/01/17 02:33:00;;;;;;;42.15;18.90;;;-1.30;99.90;;;;;;5029585;28;20351;-44
2021/01/17 02:35:29;;;;;;;39.95;19.80;;;-1.30;99.90;;;;;;5028527;28;20029;-43
2021/01/17 02:38:07;;;;;;;38.38;17.25;;;-1.30;99.90;;;;;;5027927;28;20103;-42
2021/01/17 02:41:07;;;;;;;30.33;15.23;;;-1.30;99.90;;;;;;5026844;28;20364;-43
2021/01/17 02:43:33;;;;;;;37.53;18.08;;;-1.40;99.90;;;;;;5024833;28;20041;-44
2021/01/17 02:45:59;;;;;;;34.13;17.17;;;-1.30;99.90;;;;;;5027812;28;20026;-45
2021/01/17 02:48:24;;;;;;;40.85;17.95;;;-1.30;99.90;;;;;;5029140;28;20029;-42
2021/01/17 02:50:50;;;;;;;37.53;18.60;;;-1.30;99.90;;;;;;5028437;28;20104;-43
2021/01/17 02:53:25;;;;;;;37.80;18.02;;;-1.40;99.90;;;;;;5028638;28;20052;-43
2021/01/17 02:55:53;;;;;;;31.20;16.23;;;-1.30;99.90;;;;;;5017219;28;20022;-46
2021/01/17 02:58:22;;;;;;;37.53;17.85;;;-1.40;99.90;;;;;;5029175;28;20043;-44
2021/01/17 03:00:52;;;;;;;37.35;17.95;;;-1.40;99.90;;;;;;5027694;28;20018;-45
2021/01/17 03:03:19;;;;;;;;;;;-1.40;99.90;;;;;;5029558;28;20030;-44
2021/01/17 03:05:46;;;;;;;34.50;17.45;;;-1.40;99.90;;;;;;5028645;28;19915;-44
2021/01/17 03:08:12;;;;;;;36.80;18.05;;;-1.50;99.90;;;;;;5028252;28;20429;-44
2021/01/17 03:10:38;;;;;;;35.33;16.83;;;-1.50;99.90;;;;;;5029136;28;20104;-44
2021/01/17 03:13:04;;;;;;;39.38;18.45;;;-1.50;99.90;;;;;;5028940;28;20109;-43
2021/01/17 03:15:33;;;;;;;38.28;19.27;;;-1.50;99.90;;;;;;5027465;28;20022;-44
2021/01/17 03:18:01;;;;;;;40.25;19.10;;;-1.50;99.90;;;;;;5029086;28;20099;-43
2021/01/17 03:20:27;;;;;;;36.92;18.35;;;-1.50;99.90;;;;;;5029283;28;20021;-42
2021/01/17 03:22:53;;;;;;;36.25;17.70;;;-1.60;99.90;;;;;;5028004;28;20111;-44
2021/01/17 03:25:18;;;;;;;40.58;18.83;;;-1.50;99.90;;;;;;5028293;28;20033;-43
2021/01/17 03:27:44;;;;;;;34.40;17.80;;;-1.60;99.90;;;;;;5028029;28;20029;-46
2021/01/17 03:30:10;;;;;;;40.55;18.90;;;-1.50;99.90;;;;;;5028621;28;20053;-45
2021/01/17 03:32:35;;;;;;;35.80;18.52;;;-1.60;99.90;;;;;;5026781;28;20075;-43
2021/01/17 03:35:01;;;;;;;37.53;16.98;;;-1.60;99.90;;;;;;5028253;28;20025;-44
2021/01/17 03:37:26;;;;;;;38.08;16.65;;;-1.60;99.90;;;;;;5028808;28;20477;-45
2021/01/17 03:39:52;;;;;;;33.53;17.98;;;-1.60;99.90;;;;;;5028036;28;20074;-45
2021/01/17 03:42:17;;;;;;;36.22;18.58;;;-1.60;99.90;;;;;;5028795;28;20040;-45
2021/01/17 03:44:43;;;;;;;34.58;16.75;;;-1.60;99.90;;;;;;5027811;28;20311;-43
2021/01/17 03:47:09;;;;;;;32.13;17.23;;;-1.60;99.90;;;;;;5028703;28;20444;-44
2021/01/17 03:49:35;;;;;;;36.65;17.95;;;-1.60;99.90;;;;;;5027939;28;20033;-46
2021/01/17 03:52:00;;;;;;;38.75;18.63;;;-1.70;99.90;;;;;;5026224;28;20025;-43
2021/01/17 03:54:26;;;;;;;37.78;19.25;;;-1.70;99.90;;;;;;5028023;28;20074;-44
2021/01/17 03:56:51;;;;;;;35.47;17.48;;;-1.70;99.90;;;;;;5027395;28;20029;-44
2021/01/17 03:59:17;;;;;;;39.90;16.58;;;-1.70;99.90;;;;;;5027458;28;20323;-43
2021/01/17 04:01:43;;;;;;;36.30;17.23;;;-1.70;99.90;;;;;;5027434;28;20322;-43
2021/01/17 04:04:09;;;;;;;37.17;18.27;;;-1.70;99.90;;;;;;5028543;28;20026;-44
2021/01/17 04:06:38;;;;;;;36.28;18.08;;;-1.70;99.90;;;;;;5027702;28;20497;-44
2021/01/17 04:09:05;;;;;;;34.50;16.17;;;-1.70;99.90;;;;;;5028375;28;20029;-44
2021/01/17 04:11:30;;;;;;;35.08;17.10;;;-1.70;99.90;;;;;;5028392;28;20152;-44
2021/01/17 04:13:56;;;;;;;36.25;18.17;;;-1.70;99.90;;;;;;5031966;28;20048;-47
2021/01/17 04:16:22;;;;;;;35.53;17.65;;;-1.80;99.90;;;;;;5031678;28;20513;-45
2021/01/17 04:18:47;;;;;;;32.03;16.58;;;-1.70;99.90;;;;;;5032065;28;20406;-43
2021/01/17 04:21:13;;;;;;;32.25;17.02;;;-1.70;99.90;;;;;;5032045;28;20021;-44
2021/01/17 04:23:38;;;;;;;39.67;18.92;;;-1.70;99.90;;;;;;5032279;28;20030;-45
2021/01/17 04:26:04;;;;;;;38.08;18.17;;;-1.70;99.90;;;;;;5031856;28;20024;-43
2021/01/17 04:28:29;;;;;;;36.85;17.33;;;-1.70;99.90;;;;;;5032126;28;20518;-45
2021/01/17 04:30:54;;;;;;;39.47;18.17;;;-1.70;99.90;;;;;;5032239;28;20048;-44
2021/01/17 04:33:20;;;;;;;33.08;17.63;;;-1.70;99.90;;;;;;5032071;28;20029;-44
2021/01/17 04:35:47;;;;;;;40.17;18.98;;;-1.70;99.90;;;;;;5031112;28;20500;-43
2021/01/17 04:38:12;;;;;;;38.75;17.20;;;-1.70;99.90;;;;;;5030635;28;20363;-44
2021/01/17 04:40:38;;;;;;;37.42;17.13;;;-1.70;99.90;;;;;;5031857;28;20037;-44
2021/01/17 04:43:09;;;;;;;35.45;17.13;;;-1.70;99.90;;;;;;5031957;28;20057;-44
2021/01/17 04:45:35;;;;;;;34.38;17.35;;;-1.70;99.90;;;;;;5031176;28;20071;-42
2021/01/17 04:48:03;;;;;;;34.38;16.83;;;-1.70;99.90;;;;;;5031879;28;20022;-43
2021/01/17 04:50:34;;;;;;;41.00;18.77;;;-1.70;99.90;;;;;;5030034;28;20032;-42
2021/01/17 04:53:06;;;;;;;33.97;17.63;;;-1.70;99.90;;;;;;5031635;28;20029;-45
2021/01/17 04:55:37;;;;;;;37.42;16.80;;;-1.70;99.90;;;;;;5030904;28;20045;-44
2021/01/17 04:58:16;;;;;;;38.17;17.77;;;-1.70;99.90;;;;;;5031601;28;20172;-44
2021/01/17 05:00:44;;;;;;;36.47;17.52;;;-1.70;99.90;;;;;;5030391;28;20029;-43
2021/01/17 05:04:07;;;;;;;33.90;17.00;;;-1.60;99.90;;;;;;5031563;28;20092;-43
2021/01/17 05:06:38;;;;;;;37.17;17.20;;;-1.60;99.90;;;;;;5047859;28;20033;-43
2021/01/17 05:09:05;;;;;;;38.55;17.40;;;-1.60;99.90;;;;;;5048669;28;20120;-44
2021/01/17 05:11:40;;;;;;;34.17;17.30;;;-1.60;99.90;;;;;;5029686;28;20108;-44
2021/01/17 05:14:12;;;;;;;38.80;17.63;;;-1.60;99.90;;;;;;5031384;28;20175;-44
2021/01/17 05:16:40;;;;;;;38.55;18.42;;;-1.60;99.90;;;;;;5030909;28;20029;-44
2021/01/17 05:19:09;;;;;;;36.08;17.45;;;-1.60;99.90;;;;;;5031244;28;20124;-44
2021/01/17 05:21:36;;;;;;;39.17;17.85;;;-1.70;99.90;;;;;;5031316;28;20029;-44
2021/01/17 05:24:04;;;;;;;33.58;16.90;;;-1.60;99.90;;;;;;5030328;28;20026;-44
2021/01/17 05:26:30;;;;;;;40.10;17.88;;;-1.70;99.90;;;;;;5030443;28;20403;-44
2021/01/17 05:28:55;;;;;;;35.13;17.45;;;-1.70;99.90;;;;;;5031108;28;20280;-43
2021/01/17 05:31:25;;;;;;;31.88;16.75;;;-1.70;99.90;;;;;;5031005;28;20025;-44
2021/01/17 05:33:51;;;;;;;32.35;16.83;;;-1.70;99.90;;;;;;5029518;28;20490;-43
2021/01/17 05:36:16;;;;;;;35.42;16.75;;;-1.70;99.90;;;;;;5030035;28;20068;-44
2021/01/17 05:38:42;;;;;;;34.85;16.70;;;-1.70;99.90;;;;;;5030999;28;20029;-42
2021/01/17 05:41:23;;;;;;;33.35;15.70;;;-1.80;99.90;;;;;;5030872;28;20029;-43
2021/01/17 05:43:49;;;;;;;34.05;16.90;;;-1.80;99.90;;;;;;5030979;28;20079;-46
2021/01/17 05:46:15;;;;;;;31.65;16.75;;;-1.80;99.90;;;;;;5028485;28;20045;-42
2021/01/17 05:48:40;;;;;;;34.50;16.90;;;-1.80;99.90;;;;;;5021698;28;20033;-44
2021/01/17 05:51:06;;;;;;;34.78;17.38;;;-1.80;99.90;;;;;;5029033;28;20044;-43
2021/01/17 05:53:32;;;;;;;37.72;18.88;;;-1.80;99.90;;;;;;5029536;28;20056;-44
2021/01/17 05:56:00;;;;;;;32.92;14.73;;;-1.90;99.90;;;;;;5029234;28;20514;-42
2021/01/17 05:58:31;;;;;;;40.05;18.52;;;-1.90;99.90;;;;;;5029671;28;20238;-43
2021/01/17 06:00:59;;;;;;;31.45;15.60;;;-1.90;99.90;;;;;;5030211;28;20360;-43
2021/01/17 06:03:36;;;;;;;32.63;16.83;;;-2.00;99.90;;;;;;5036588;28;20021;-43
2021/01/17 06:06:06;;;;;;;36.90;17.50;;;-1.90;99.90;;;;;;5026367;28;20033;-43
2021/01/17 06:08:33;;;;;;;38.27;16.57;;;-1.90;99.90;;;;;;5028852;28;20429;-44
2021/01/17 06:11:10;;;;;;;33.60;15.63;;;-2.00;99.90;;;;;;5026971;28;20613;-43
2021/01/17 06:13:40;;;;;;;38.33;17.58;;;-2.00;99.90;;;;;;5029425;28;20017;-43
2021/01/17 06:16:23;;;;;;;35.33;17.65;;;-2.00;99.90;;;;;;5029241;28;20029;-43
2021/01/17 06:19:03;;;;;;;32.00;16.17;;;-2.00;99.90;;;;;;5028007;28;20453;-43
2021/01/17 06:21:30;;;;;;;35.80;16.83;;;-2.00;99.90;;;;;;5028671;28;20049;-45
2021/01/17 06:23:57;;;;;;;35.60;16.42;;;-2.00;99.90;;;;;;5028634;28;20029;-44
2021/01/17 06:26:25;;;;;;;35.58;18.02;;;-2.00;99.90;;;;;;5025698;28;20291;-43
2021/01/17 06:28:50;;;;;;;35.85;18.15;;;-2.10;99.90;;;;;;5028941;28;20071;-44
2021/01/17 06:31:22;;;;;;;41.35;19.15;;;-2.10;99.90;;;;;;5027921;28;20454;-43
2021/01/17 06:33:50;;;;;;;36.92;16.95;;;-2.10;99.90;;;;;;5026929;28;20057;-44
2021/01/17 06:36:16;;;;;;;33.60;16.45;;;-2.10;99.90;;;;;;5026823;28;20108;-43
2021/01/17 06:38:43;;;;;;;37.40;16.83;;;-2.10;99.90;;;;;;5028840;28;20097;-43
2021/01/17 06:41:12;;;;;;;32.08;16.35;;;-2.10;99.90;;;;;;5028175;28;20037;-43
2021/01/17 06:43:42;;;;;;;46.60;20.02;;;-2.10;99.90;;;;;;5027981;28;20091;-44
2021/01/17 06:46:10;;;;;;;38.45;16.48;;;-2.10;99.90;;;;;;5025659;28;20062;-45
2021/01/17 06:48:35;;;;;;;40.00;19.33;;;-2.10;99.90;;;;;;5028684;28;20049;-45
2021/01/17 06:51:18;;;;;;;40.38;18.35;;;-2.10;99.90;;;;;;5028668;28;20483;-44
2021/01/17 06:53:51;;;;;;;37.20;16.67;;;-2.20;99.90;;;;;;5027257;28;20021;-46
2021/01/17 06:56:16;;;;;;;34.33;17.88;;;-2.20;99.90;;;;;;5025857;28;20447;-45
2021/01/17 06:58:45;;;;;;;30.77;16.58;;;-2.20;99.90;;;;;;5028522;28;20026;-42
2021/01/17 07:01:10;;;;;;;36.88;17.23;;;-2.20;99.90;;;;;;5027942;28;20107;-45
2021/01/17 07:03:57;;;;;;;36.47;17.55;;;-2.20;99.90;;;;;;5025563;28;20060;-44
2021/01/17 07:06:49;;;;;;;33.70;16.20;;;-2.20;99.90;;;;;;5026197;28;20029;-45
2021/01/17 07:09:25;;;;;;;36.58;16.35;;;-2.20;99.90;;;;;;5026248;28;20025;-44
2021/01/17 07:12:12;;;;;;;36.75;17.30;;;-2.20;99.90;;;;;;5027675;28;20192;-43
2021/01/17 07:14:40;;;;;;;35.33;17.42;;;-2.20;99.90;;;;;;5026694;28;20025;-43
2021/01/17 07:17:09;;;;;;;35.72;16.88;;;-2.10;99.90;;;;;;5021477;28;20460;-44
2021/01/17 07:19:39;;;;;;;36.75;17.30;;;-2.10;99.90;;;;;;5026020;28;20036;-44
2021/01/17 07:22:05;;;;;;;35.20;18.08;;;-2.10;99.90;;;;;;5022274;28;20380;-44
2021/01/17 07:24:31;;;;;;;36.80;17.08;;;-2.10;99.90;;;;;;5015848;28;20037;-44
2021/01/17 07:27:30;;;;;;;38.45;17.35;;;-2.00;99.90;;;;;;5023392;28;20051;-43
2021/01/17 07:29:59;;;;;;;45.72;17.02;;;-2.00;99.90;;;;;;5023010;28;20077;-43
2021/01/17 07:32:33;;;;;;;41.40;17.92;;;-2.00;99.90;;;;;;5027037;28;20025;-43
2021/01/17 07:35:10;;;;;;;37.78;18.70;;;-2.00;99.90;;;;;;5023379;28;20036;-43
2021/01/17 07:37:41;;;;;;;32.70;17.30;;;-2.00;99.90;;;;;;5028632;28;20267;-46
2021/01/17 07:40:08;;;;;;;33.55;17.20;;;-2.00;99.90;;;;;;5027071;28;20421;-44
2021/01/17 07:42:37;;;;;;;37.95;18.98;;;-1.90;99.90;;;;;;5026990;28;20112;-42
2021/01/17 07:45:16;;;;;;;40.95;19.83;;;-2.00;99.90;;;;;;5024873;28;20029;-46
2021/01/17 07:47:43;;;;;;;39.30;17.98;;;-1.90;99.90;;;;;;5025748;28;20037;-44
2021/01/17 07:50:10;;;;;;;39.22;18.08;;;-1.90;99.90;;;;;;5028292;28;20075;-43
2021/01/17 07:52:44;;;;;;;35.45;17.13;;;-1.90;99.90;;;;;;5028058;28;20052;-44
2021/01/17 07:55:12;;;;;;;36.92;16.90;;;-1.90;99.90;;;;;;5026829;28;20498;-43
2021/01/17 07:57:38;;;;;;;34.25;16.83;;;-1.80;99.90;;;;;;5028437;28;20463;-43
2021/01/17 08:00:07;;;;;;;33.65;17.80;;;-1.80;99.90;;;;;;5028660;28;20040;-45
2021/01/17 08:02:35;;;;;;;38.75;18.70;;;-1.70;99.90;;;;;;5029676;28;20063;-43
2021/01/17 08:05:02;;;;;;;38.75;19.33;;;-1.70;99.90;;;;;;5029296;28;20061;-44
2021/01/17 08:07:33;;;;;;;37.00;18.05;;;-1.70;99.90;;;;;;5028515;28;20040;-43
2021/01/17 08:10:00;;;;;;;32.42;15.63;;;-1.70;99.90;;;;;;5030050;28;20021;-43
2021/01/17 08:12:33;;;;;;;36.38;17.55;;;-1.60;99.90;;;;;;5029935;28;20038;-43
2021/01/17 08:15:16;;;;;;;37.83;17.95;;;-1.60;99.90;;;;;;5029391;28;20489;-43
2021/01/17 08:17:42;;;;;;;39.50;16.70;;;-1.50;99.90;;;;;;5030007;28;20061;-44
2021/01/17 08:20:08;;;;;;;35.20;17.92;;;-1.50;99.90;;;;;;5029490;28;20549;-44
2021/01/17 08:22:33;;;;;;;38.70;16.65;;;-1.50;99.90;;;;;;5029856;28;20555;-43
2021/01/17 08:25:01;;;;;;;32.55;17.48;;;-1.40;99.90;;;;;;5029102;28;20024;-43
2021/01/17 08:27:41;;;;;;;41.30;19.60;;;-1.50;99.90;;;;;;5028441;28;20021;-43
2021/01/17 08:30:14;;;;;;;36.50;18.85;;;-1.40;99.90;;;;;;5029947;28;20105;-43
2021/01/17 08:32:45;;;;;;;32.80;17.88;;;-1.40;99.90;;;;;;5029445;28;20548;-44
2021/01/17 08:35:10;;;;;;;32.55;16.35;;;-1.40;99.90;;;;;;5028354;28;20033;-43
2021/01/17 08:37:39;;;;;;;33.65;17.75;;;-1.40;99.90;;;;;;5028571;28;20013;-43
2021/01/17 08:40:06;;;;;;;34.78;16.67;;;-1.40;99.90;;;;;;5029187;28;20352;-44
2021/01/17 08:42:34;;;;;;;31.60;17.45;;;-1.30;99.90;;;;;;5029483;28;20036;-45
2021/01/17 08:45:02;;;;;;;31.83;17.02;;;-1.20;99.90;;;;;;5029136;28;20018;-45
2021/01/17 08:47:33;;;;;;;31.73;16.80;;;-1.20;99.90;;;;;;5029610;28;20379;-44
2021/01/17 08:49:59;;;;;;;35.00;16.33;;;-1.10;99.90;;;;;;5029780;28;20483;-43
2021/01/17 08:52:31;;;;;;;36.20;17.05;;;-1.10;99.90;;;;;;5029363;28;20071;-44
2021/01/17 08:54:56;;;;;;;34.97;18.08;;;-1.00;99.90;;;;;;5028333;28;20025;-44
2021/01/17 08:57:43;;;;;;;38.85;18.85;;;-1.00;99.90;;;;;;5029125;28;20028;-42
2021/01/17 09:00:14;;;;;;;31.98;15.30;;;-0.90;99.90;;;;;;5031276;28;20049;-49
2021/01/17 09:02:40;;;;;;;35.53;17.77;;;-0.90;99.90;;;;;;5031057;28;20026;-44
2021/01/17 09:05:17;;;;;;;35.33;18.50;;;-0.90;99.90;;;;;;5032309;28;20036;-43
2021/01/17 09:07:44;;;;;;;36.92;18.02;;;-0.80;99.90;;;;;;5031992;28;20025;-44
2021/01/17 09:10:14;;;;;;;30.73;16.20;;;-0.70;99.90;;;;;;5032827;28;20048;-44
2021/01/17 09:12:40;;;;;;;34.88;17.45;;;-0.60;99.90;;;;;;5032338;28;20028;-44
2021/01/17 09:15:19;;;;;;;33.90;16.02;;;-0.60;99.90;;;;;;5032494;28;20029;-43
2021/01/17 09:18:05;;;;;;;34.25;16.88;;;-0.50;99.90;;;;;;5032177;28;20056;-43
2021/01/17 09:20:34;;;;;;;33.58;16.90;;;-0.40;99.90;;;;;;5030995;28;20498;-45
2021/01/17 09:23:02;;;;;;;34.28;17.30;;;-0.30;99.90;;;;;;5031391;28;20029;-46
2021/01/17 09:25:28;;;;;;;32.67;17.02;;;-0.20;99.90;;;;;;5031450;28;20029;-45
2021/01/17 09:27:57;;;;;;;33.80;16.23;;;-0.10;99.90;;;;;;5032732;28;20060;-48
2021/01/17 09:30:24;;;;;;;34.63;17.77;;;0.00;99.90;;;;;;5031895;28;20540;-45
2021/01/17 09:32:51;;;;;;;28.85;15.75;;;0.00;99.90;;;;;;5031862;28;20417;-44
2021/01/17 09:35:16;;;;;;;29.85;15.20;;;0.10;99.90;;;;;;5030650;28;20021;-45
2021/01/17 09:37:42;;;;;;;33.05;17.27;;;0.20;99.90;;;;;;5031124;28;20025;-44
2021/01/17 09:40:08;;;;;;;35.00;16.83;;;0.30;99.90;;;;;;5027305;28;20033;-45
2021/01/17 09:42:35;;;;;;;29.98;16.70;;;0.40;99.90;;;;;;5030173;28;20061;-47
2021/01/17 09:45:04;;;;;;;30.58;16.33;;;0.50;99.90;;;;;;5030203;28;20590;-44
2021/01/17 09:47:32;;;;;;;30.63;16.45;;;0.60;99.90;;;;;;5028210;28;20474;-45
2021/01/17 09:50:09;;;;;;;26.25;16.08;;;0.70;99.90;;;;;;5024135;28;20021;-45
2021/01/17 09:52:39;;;;;;;30.13;17.05;;;0.70;99.90;;;;;;5027770;28;20033;-45
2021/01/17 09:55:07;;;;;;;31.77;17.10;;;0.90;99.90;;;;;;5023601;28;20021;-45
2021/01/17 09:57:37;;;;;;;32.08;18.23;;;0.90;99.90;;;;;;5022622;28;20078;-46
2021/01/17 10:00:20;;;;;;;34.65;17.45;;;1.00;99.90;;;;;;5030039;28;20428;-44
2021/01/17 10:02:45;;;;;;;33.15;17.70;;;1.10;99.90;;;;;;5029557;28;20048;-45
2021/01/17 10:05:11;;;;;;;30.02;17.40;;;1.10;99.90;;;;;;5028446;28;20150;-45
2021/01/17 10:07:37;;;;;;;29.63;16.17;;;1.20;99.90;;;;;;5023001;28;20502;-44
2021/01/17 10:10:10;;;;;;;29.00;16.27;;;1.30;99.90;;;;;;5029147;28;20446;-45
2021/01/17 10:12:36;;;;;;;32.33;18.13;;;1.50;99.90;;;;;;5014861;28;20167;-45
2021/01/17 10:15:10;;;;;;;28.58;16.90;;;1.50;99.90;;;;;;5025919;28;20594;-45
2021/01/17 10:17:52;;;;;;;28.75;16.75;;;1.60;99.90;;;;;;5027438;28;20082;-45
2021/01/17 10:20:25;;;;;;;33.25;18.17;;;1.70;99.90;;;;;;5029203;28;20018;-45
2021/01/17 10:23:00;;;;;;;31.85;17.10;;;1.80;99.90;;;;;;5030010;28;20030;-45
2021/01/17 10:25:27;;;;;;;29.20;16.15;;;1.90;99.90;;;;;;5028231;28;20090;-44
2021/01/17 10:28:00;;;;;;;30.25;17.17;;;2.00;99.90;;;;;;5029950;28;20037;-46
2021/01/17 10:30:28;;;;;;;27.55;16.02;;;2.30;99.90;;;;;;5028933;28;20049;-44
2021/01/17 10:33:10;;;;;;;29.50;16.48;;;2.40;99.90;;;;;;5029336;28;20058;-44
2021/01/17 10:35:42;;;;;;;24.73;16.10;;;2.60;99.90;;;;;;5027950;28;20118;-45
2021/01/17 10:38:09;;;;;;;28.52;16.48;;;2.80;99.90;;;;;;5028792;28;20037;-45
2021/01/17 10:40:36;;;;;;;27.58;15.25;;;3.20;99.90;;;;;;5028598;28;20072;-45
2021/01/17 10:43:05;;;;;;;29.40;16.63;;;3.80;99.90;;;;;;5029641;28;20034;-44
2021/01/17 10:45:32;;;;;;;26.80;15.80;;;4.20;99.90;;;;;;5029058;28;20553;-48
2021/01/17 10:48:11;;;;;;;31.33;18.73;;;4.60;99.90;;;;;;5028847;28;20033;-47
2021/01/17 10:50:48;;;;;;;29.10;17.83;;;5.00;98.30;;;;;;5027929;28;20018;-45
2021/01/17 10:53:49;;;;;;;26.13;17.45;;;5.10;97.10;;;;;;5025321;28;20053;-48
2021/01/17 10:56:19;;;;;;;;;;;5.10;95.70;;;;;;5028111;28;20026;-48
2021/01/17 10:58:45;;;;;;;32.60;17.08;;;4.90;93.30;;;;;;5027033;28;19904;-46
2021/01/17 11:01:11;;;;;;;31.13;17.92;;;4.90;93.90;;;;;;5029389;28;20026;-45
2021/01/17 11:03:37;;;;;;;29.88;18.27;;;5.00;93.30;;;;;;5028570;28;20432;-45
2021/01/17 11:06:12;;;;;;;31.50;17.75;;;4.90;93.10;;;;;;5028814;28;20447;-45
2021/01/17 11:08:41;;;;;;;27.58;17.35;;;4.90;93.60;;;;;;5028329;28;20037;-45
2021/01/17 11:11:07;;;;;;;32.72;18.10;;;4.90;93.10;;;;;;5029103;28;20048;-46
2021/01/17 11:13:32;;;;;;;28.02;16.80;;;5.00;92.40;;;;;;5029281;28;20108;-48
2021/01/17 11:15:58;;;;;;;30.77;18.88;;;4.90;92.90;;;;;;5028512;28;20105;-45
2021/01/17 11:18:24;;;;;;;32.80;17.88;;;4.70;93.20;;;;;;5028239;28;20044;-45
2021/01/17 11:20:58;;;;;;;30.05;18.77;;;4.60;94.10;;;;;;5028088;28;20071;-47
2021/01/17 11:23:26;;;;;;;32.83;18.98;;;4.40;93.70;;;;;;5027695;28;20079;-48
2021/01/17 11:25:58;;;;;;;29.90;17.95;;;4.20;94.20;;;;;;5025132;28;20025;-46
2021/01/17 11:28:28;;;;;;;33.65;19.60;;;3.90;95.80;;;;;;5028695;28;20113;-44
2021/01/17 11:30:54;;;;;;;34.20;19.67;;;3.60;96.60;;;;;;5028447;28;20104;-45
2021/01/17 11:33:26;;;;;;;31.25;18.33;;;3.50;98.30;;;;;;5028748;28;20025;-49
2021/01/17 11:35:51;;;;;;;35.67;19.42;;;3.50;98.70;;;;;;5026591;28;20051;-46
2021/01/17 11:38:17;;;;;;;30.17;18.75;;;3.40;99.90;;;;;;5028590;28;20231;-45
2021/01/17 11:40:42;;;;;;;34.75;18.98;;;3.40;99.90;;;;;;5028563;28;20025;-46
2021/01/17 11:43:12;;;;;;;34.72;19.17;;;3.10;99.90;;;;;;5028573;28;20037;-45
2021/01/17 11:45:43;;;;;;;27.98;17.45;;;3.20;99.90;;;;;;5027402;28;20187;-47
2021/01/17 11:48:10;;;;;;;30.52;18.10;;;3.20;99.90;;;;;;5027941;28;20084;-45
2021/01/17 11:50:44;;;;;;;31.60;18.20;;;3.10;99.90;;;;;;5028120;28;20021;-46
2021/01/17 11:53:11;;;;;;;29.63;18.63;;;3.10;99.90;;;;;;5028222;28;20674;-44
2021/01/17 11:55:38;;;;;;;29.20;17.50;;;3.20;99.90;;;;;;5026893;28;20056;-47
2021/01/17 11:58:15;;;;;;;31.33;18.20;;;3.10;99.90;;;;;;5028115;28;20540;-47
2021/01/17 12:01:23;;;;;;;31.10;19.58;;;3.10;99.90;;;;;;5026881;28;20191;-45
2021/01/17 12:04:01;;;;;;;29.77;16.92;;;3.00;99.90;;;;;;5003186;28;20116;-46
2021/01/17 12:06:27;;;;;;;29.20;17.27;;;3.00;99.90;;;;;;5023657;28;20030;-46
2021/01/17 12:09:00;;;;;;;26.55;16.50;;;3.00;99.90;;;;;;5025506;28;20026;-46
2021/01/17 12:11:45;;;;;;;31.58;17.48;;;3.00;99.90;;;;;;5027247;28;20025;-47
2021/01/17 12:14:15;;;;;;;27.20;17.20;;;3.00;99.90;;;;;;5027827;28;20037;-44
2021/01/17 12:16:44;;;;;;;29.95;18.13;;;3.00;99.90;;;;;;5027512;28;20224;-45
2021/01/17 12:19:12;;;;;;;27.90;17.05;;;3.10;99.90;;;;;;5028149;28;20569;-45
2021/01/17 12:21:38;;;;;;;29.02;16.48;;;3.10;99.90;;;;;;5028031;28;20025;-49
2021/01/17 12:24:06;;;;;;;30.40;17.48;;;3.20;99.90;;;;;;5028060;28;20565;-46
2021/01/17 12:26:31;;;;;;;30.48;16.60;;;3.20;99.90;;;;;;5027587;28;20025;-47
2021/01/17 12:28:57;;;;;;;27.92;16.70;;;3.20;99.90;;;;;;5028500;28;20032;-45
2021/01/17 12:31:25;;;;;;;29.83;17.08;;;3.30;99.90;;;;;;5028224;28;20021;-45
2021/01/17 12:33:50;;;;;;;26.73;16.13;;;3.30;99.90;;;;;;5029907;28;20021;-45
2021/01/17 12:36:20;;;;;;;33.58;16.15;;;3.30;99.90;;;;;;5031531;28;20021;-46
2021/01/17 12:38:46;;;;;;;24.77;14.95;;;3.30;99.90;;;;;;5031009;28;20625;-48
2021/01/17 12:41:28;;;;;;;28.45;16.05;;;3.10;99.70;;;;;;5032044;28;20024;-46